sensor_id;sensor_type;location;lat;lon;timestamp;pressure;altitude;pressure_sealevel;temperature;humidity
11049;BME280;5577;42.706;23.160;2022-09-20T00:00:34;94238.19;;;10.38;100.00
11049;BME280;5577;42.706;23.160;2022-09-20T00:03:17;94242.88;;;10.44;100.00
11049;BME280;5577;42.706;23.160;2022-09-20T00:06:03;94243.38;;;10.50;100.00
11049;BME280;5577;42.706;23.160;2022-09-20T00:08:48;94248.00;;;10.37;100.00
11049;BME280;5577;42.706;23.160;2022-09-20T00:11:34;94245.75;;;10.08;100.00
11049;BME280;5577;42.706;23.160;2022-09-20T00:14:18;94244.28;;;10.11;100.00
11049;BME280;5577;42.706;23.160;2022-09-20T00:17:02;94241.84;;;10.33;100.00
11049;BME280;5577;42.706;23.160;2022-09-20T00:19:46;94246.13;;;10.38;100.00
11049;BME280;5577;42.706;23.160;2022-09-20T00:22:30;94245.59;;;10.32;100.00
11049;BME280;5577;42.706;23.160;2022-09-20T00:25:15;94252.72;;;10.44;100.00
11049;BME280;5577;42.706;23.160;2022-09-20T00:27:59;94251.59;;;10.45;100.00
11049;BME280;5577;42.706;23.160;2022-09-20T00:30:44;94250.06;;;10.44;100.00
11049;BME280;5577;42.706;23.160;2022-09-20T00:33:28;94245.94;;;10.46;100.00
11049;BME280;5577;42.706;23.160;2022-09-20T00:36:32;94245.63;;;10.48;100.00
11049;BME280;5577;42.706;23.160;2022-09-20T00:39:16;94228.88;;;10.44;100.00
11049;BME280;5577;42.706;23.160;2022-09-20T00:42:00;94243.88;;;10.40;100.00
11049;BME280;5577;42.706;23.160;2022-09-20T00:44:54;94244.44;;;10.45;100.00
11049;BME280;5577;42.706;23.160;2022-09-20T00:50:51;94237.22;;;10.30;100.00
11049;BME280;5577;42.706;23.160;2022-09-20T00:53:41;94233.84;;;10.30;100.00
11049;BME280;5577;42.706;23.160;2022-09-20T00:56:30;94233.56;;;10.19;100.00
11049;BME280;5577;42.706;23.160;2022-09-20T00:59:22;94228.25;;;10.19;100.00
11049;BME280;5577;42.706;23.160;2022-09-20T01:02:25;94239.69;;;10.23;100.00
11049;BME280;5577;42.706;23.160;2022-09-20T01:05:11;94234.34;;;10.35;100.00
11049;BME280;5577;42.706;23.160;2022-09-20T01:07:56;94235.78;;;10.33;100.00
11049;BME280;5577;42.706;23.160;2022-09-20T01:10:40;94210.09;;;10.18;100.00
11049;BME280;5577;42.706;23.160;2022-09-20T01:13:25;94235.53;;;10.38;100.00
11049;BME280;5577;42.706;23.160;2022-09-20T01:16:10;94245.34;;;10.37;100.00
11049;BME280;5577;42.706;23.160;2022-09-20T01:18:57;94242.69;;;10.37;100.00
11049;BME280;5577;42.706;23.160;2022-09-20T01:21:43;94237.00;;;10.35;100.00
11049;BME280;5577;42.706;23.160;2022-09-20T01:24:55;94231.19;;;10.30;100.00
11049;BME280;5577;42.706;23.160;2022-09-20T01:27:46;94235.19;;;10.24;100.00
11049;BME280;5577;42.706;23.160;2022-09-20T01:30:41;94224.88;;;10.19;100.00
11049;BME280;5577;42.706;23.160;2022-09-20T01:33:31;94228.19;;;10.16;100.00
11049;BME280;5577;42.706;23.160;2022-09-20T01:36:33;94234.69;;;10.18;100.00
11049;BME280;5577;42.706;23.160;2022-09-20T01:42:17;94241.66;;;10.11;100.00
11049;BME280;5577;42.706;23.160;2022-09-20T01:45:21;94260.88;;;9.96;100.00
11049;BME280;5577;42.706;23.160;2022-09-20T01:48:33;94260.34;;;9.90;100.00
11049;BME280;5577;42.706;23.160;2022-09-20T01:54:42;94254.09;;;9.83;100.00
11049;BME280;5577;42.706;23.160;2022-09-20T02:12:47;94233.81;;;9.32;100.00
11049;BME280;5577;42.706;23.160;2022-09-20T02:25:01;94238.41;;;8.95;100.00
11049;BME280;5577;42.706;23.160;2022-09-20T02:31:01;94243.56;;;8.92;100.00
11049;BME280;5577;42.706;23.160;2022-09-20T02:36:50;94205.53;;;8.56;100.00
11049;BME280;5577;42.706;23.160;2022-09-20T02:46:12;94262.50;;;8.69;100.00
11049;BME280;5577;42.706;23.160;2022-09-20T02:58:59;94251.41;;;8.64;100.00
11049;BME280;5577;42.706;23.160;2022-09-20T03:02:26;94245.66;;;8.62;100.00
11049;BME280;5577;42.706;23.160;2022-09-20T03:05:28;94246.88;;;8.52;100.00
11049;BME280;5577;42.706;23.160;2022-09-20T03:08:47;94246.13;;;8.52;100.00
11049;BME280;5577;42.706;23.160;2022-09-20T03:12:03;94252.19;;;8.64;100.00
11049;BME280;5577;42.706;23.160;2022-09-20T03:15:04;94263.50;;;8.53;100.00
11049;BME280;5577;42.706;23.160;2022-09-20T03:18:06;94248.66;;;8.48;100.00
11049;BME280;5577;42.706;23.160;2022-09-20T03:21:04;94209.28;;;8.31;100.00
11049;BME280;5577;42.706;23.160;2022-09-20T03:33:55;94268.44;;;8.54;100.00
11049;BME280;5577;42.706;23.160;2022-09-20T03:58:42;94262.00;;;8.19;100.00
11049;BME280;5577;42.706;23.160;2022-09-20T04:02:05;94262.13;;;8.23;100.00
11049;BME280;5577;42.706;23.160;2022-09-20T04:05:08;94270.59;;;8.28;100.00
11049;BME280;5577;42.706;23.160;2022-09-20T04:08:18;94280.44;;;8.19;100.00
11049;BME280;5577;42.706;23.160;2022-09-20T04:20:51;94287.97;;;7.97;100.00
11049;BME280;5577;42.706;23.160;2022-09-20T04:26:50;94288.72;;;7.97;100.00
11049;BME280;5577;42.706;23.160;2022-09-20T04:29:46;94295.97;;;8.00;100.00
11049;BME280;5577;42.706;23.160;2022-09-20T04:32:41;94296.03;;;8.12;100.00
11049;BME280;5577;42.706;23.160;2022-09-20T04:38:58;94288.81;;;8.21;100.00
11049;BME280;5577;42.706;23.160;2022-09-20T04:51:07;94299.44;;;8.57;100.00
11049;BME280;5577;42.706;23.160;2022-09-20T05:00:08;94299.22;;;8.99;100.00
11049;BME280;5577;42.706;23.160;2022-09-20T05:24:44;94307.66;;;9.28;100.00
11049;BME280;5577;42.706;23.160;2022-09-20T05:30:43;94306.88;;;9.40;100.00
11049;BME280;5577;42.706;23.160;2022-09-20T05:34:08;94306.19;;;9.55;100.00
11049;BME280;5577;42.706;23.160;2022-09-20T05:37:05;94308.38;;;9.65;100.00
11049;BME280;5577;42.706;23.160;2022-09-20T05:43:16;94290.25;;;9.51;100.00
11049;BME280;5577;42.706;23.160;2022-09-20T05:46:22;94310.28;;;9.52;100.00
11049;BME280;5577;42.706;23.160;2022-09-20T05:52:39;94273.63;;;9.78;100.00
11049;BME280;5577;42.706;23.160;2022-09-20T05:58:43;94304.69;;;10.36;100.00
11049;BME280;5577;42.706;23.160;2022-09-20T06:01:40;94264.09;;;10.17;100.00
11049;BME280;5577;42.706;23.160;2022-09-20T06:04:35;94301.88;;;10.60;100.00
11049;BME280;5577;42.706;23.160;2022-09-20T06:16:28;94277.38;;;10.79;100.00
11049;BME280;5577;42.706;23.160;2022-09-20T06:22:26;94297.50;;;11.49;100.00
11049;BME280;5577;42.706;23.160;2022-09-20T06:28:24;94306.84;;;11.78;100.00
11049;BME280;5577;42.706;23.160;2022-09-20T06:31:10;94306.63;;;11.86;100.00
11049;BME280;5577;42.706;23.160;2022-09-20T06:36:42;94308.44;;;12.01;100.00
11049;BME280;5577;42.706;23.160;2022-09-20T06:43:26;94305.66;;;12.13;100.00
11049;BME280;5577;42.706;23.160;2022-09-20T06:46:10;94304.88;;;12.32;100.00
11049;BME280;5577;42.706;23.160;2022-09-20T06:48:55;94278.78;;;12.15;100.00
11049;BME280;5577;42.706;23.160;2022-09-20T06:51:39;94310.31;;;12.39;100.00
11049;BME280;5577;42.706;23.160;2022-09-20T06:54:26;94308.84;;;12.41;100.00
11049;BME280;5577;42.706;23.160;2022-09-20T06:57:20;94310.25;;;12.58;100.00
11049;BME280;5577;42.706;23.160;2022-09-20T07:00:06;94315.94;;;12.56;100.00
11049;BME280;5577;42.706;23.160;2022-09-20T07:02:53;94321.38;;;12.63;100.00
11049;BME280;5577;42.706;23.160;2022-09-20T07:05:39;94323.19;;;12.59;100.00
11049;BME280;5577;42.706;23.160;2022-09-20T07:08:24;94323.25;;;12.63;100.00
11049;BME280;5577;42.706;23.160;2022-09-20T07:11:13;94326.41;;;12.68;100.00
11049;BME280;5577;42.706;23.160;2022-09-20T07:13:58;94336.06;;;12.80;100.00
11049;BME280;5577;42.706;23.160;2022-09-20T07:16:42;94325.16;;;12.85;100.00
11049;BME280;5577;42.706;23.160;2022-09-20T07:19:27;94328.41;;;12.97;100.00
11049;BME280;5577;42.706;23.160;2022-09-20T07:22:11;94308.19;;;12.93;100.00
11049;BME280;5577;42.706;23.160;2022-09-20T07:24:55;94329.38;;;12.89;100.00
11049;BME280;5577;42.706;23.160;2022-09-20T07:27:39;94291.97;;;12.53;100.00
11049;BME280;5577;42.706;23.160;2022-09-20T07:30:23;94315.16;;;12.56;100.00
11049;BME280;5577;42.706;23.160;2022-09-20T07:33:07;94325.84;;;12.59;100.00
11049;BME280;5577;42.706;23.160;2022-09-20T07:35:54;94321.47;;;12.48;100.00
11049;BME280;5577;42.706;23.160;2022-09-20T07:38:39;94321.13;;;12.49;100.00
11049;BME280;5577;42.706;23.160;2022-09-20T07:41:24;94328.16;;;12.42;100.00
11049;BME280;5577;42.706;23.160;2022-09-20T07:44:09;94317.13;;;12.81;100.00
11049;BME280;5577;42.706;23.160;2022-09-20T07:47:08;94314.41;;;13.49;100.00
11049;BME280;5577;42.706;23.160;2022-09-20T07:49:53;94310.50;;;13.98;100.00
11049;BME280;5577;42.706;23.160;2022-09-20T07:52:38;94323.66;;;14.17;100.00
11049;BME280;5577;42.706;23.160;2022-09-20T07:55:22;94315.41;;;14.26;100.00
11049;BME280;5577;42.706;23.160;2022-09-20T07:58:06;94313.34;;;14.12;94.97
11049;BME280;5577;42.706;23.160;2022-09-20T08:00:55;94320.09;;;13.77;96.74
11049;BME280;5577;42.706;23.160;2022-09-20T08:03:39;94311.41;;;13.54;92.91
11049;BME280;5577;42.706;23.160;2022-09-20T08:06:26;94233.63;;;13.05;97.37
11049;BME280;5577;42.706;23.160;2022-09-20T08:09:12;94307.97;;;13.79;96.49
11049;BME280;5577;42.706;23.160;2022-09-20T08:11:56;94309.09;;;14.08;96.45
11049;BME280;5577;42.706;23.160;2022-09-20T08:14:40;94317.28;;;14.25;79.46
11049;BME280;5577;42.706;23.160;2022-09-20T08:17:24;94316.69;;;14.39;81.19
11049;BME280;5577;42.706;23.160;2022-09-20T08:20:09;94313.19;;;14.31;79.45
11049;BME280;5577;42.706;23.160;2022-09-20T08:22:53;94321.50;;;14.26;80.52
11049;BME280;5577;42.706;23.160;2022-09-20T08:25:37;94321.78;;;14.21;82.34
11049;BME280;5577;42.706;23.160;2022-09-20T08:28:22;94318.56;;;14.05;81.97
11049;BME280;5577;42.706;23.160;2022-09-20T08:31:08;94319.28;;;14.02;81.11
11049;BME280;5577;42.706;23.160;2022-09-20T08:33:53;94304.13;;;14.06;78.37
11049;BME280;5577;42.706;23.160;2022-09-20T08:36:39;94273.16;;;13.91;79.02
11049;BME280;5577;42.706;23.160;2022-09-20T08:39:23;94299.47;;;14.29;77.18
11049;BME280;5577;42.706;23.160;2022-09-20T08:42:13;94303.31;;;14.32;76.16
11049;BME280;5577;42.706;23.160;2022-09-20T08:45:05;94300.78;;;14.46;73.59
11049;BME280;5577;42.706;23.160;2022-09-20T08:47:58;94294.31;;;14.14;73.81
11049;BME280;5577;42.706;23.160;2022-09-20T08:50:43;94327.28;;;14.02;76.05
11049;BME280;5577;42.706;23.160;2022-09-20T08:53:27;94296.50;;;14.05;74.93
11049;BME280;5577;42.706;23.160;2022-09-20T08:56:13;94287.28;;;13.99;74.35
11049;BME280;5577;42.706;23.160;2022-09-20T08:58:57;94294.84;;;14.23;70.70
11049;BME280;5577;42.706;23.160;2022-09-20T09:01:43;94280.50;;;14.75;73.40
11049;BME280;5577;42.706;23.160;2022-09-20T09:04:35;94285.47;;;14.76;63.55
11049;BME280;5577;42.706;23.160;2022-09-20T09:07:20;94247.34;;;14.69;63.54
11049;BME280;5577;42.706;23.160;2022-09-20T09:10:04;94278.91;;;15.10;66.53
11049;BME280;5577;42.706;23.160;2022-09-20T09:12:50;94275.56;;;14.77;66.96
11049;BME280;5577;42.706;23.160;2022-09-20T09:15:36;94277.78;;;14.68;68.68
11049;BME280;5577;42.706;23.160;2022-09-20T09:18:35;94268.19;;;14.60;67.68
11049;BME280;5577;42.706;23.160;2022-09-20T09:21:22;94242.03;;;14.72;62.88
11049;BME280;5577;42.706;23.160;2022-09-20T09:24:15;94254.63;;;15.26;63.27
11049;BME280;5577;42.706;23.160;2022-09-20T09:27:18;94268.88;;;15.47;63.12
11049;BME280;5577;42.706;23.160;2022-09-20T09:30:24;94240.88;;;15.20;62.24
11049;BME280;5577;42.706;23.160;2022-09-20T09:33:20;94254.75;;;15.40;62.09
11049;BME280;5577;42.706;23.160;2022-09-20T09:36:09;94251.41;;;16.67;62.72
11049;BME280;5577;42.706;23.160;2022-09-20T09:39:16;94255.59;;;17.24;54.28
11049;BME280;5577;42.706;23.160;2022-09-20T09:42:21;94250.25;;;17.49;54.43
11049;BME280;5577;42.706;23.160;2022-09-20T09:45:22;94228.44;;;17.33;54.82
11049;BME280;5577;42.706;23.160;2022-09-20T09:48:22;94251.00;;;16.47;58.54
11049;BME280;5577;42.706;23.160;2022-09-20T09:51:12;94257.38;;;16.18;60.01
11049;BME280;5577;42.706;23.160;2022-09-20T09:53:58;94250.63;;;16.66;57.79
11049;BME280;5577;42.706;23.160;2022-09-20T10:06:06;94245.16;;;16.17;56.96
11049;BME280;5577;42.706;23.160;2022-09-20T10:09:13;94255.19;;;16.45;56.74
11049;BME280;5577;42.706;23.160;2022-09-20T10:16:08;94247.06;;;16.20;57.26
11049;BME280;5577;42.706;23.160;2022-09-20T10:21:38;94234.19;;;17.17;54.60
11049;BME280;5577;42.706;23.160;2022-09-20T10:24:52;94240.63;;;17.69;52.75
11049;BME280;5577;42.706;23.160;2022-09-20T10:27:59;94247.97;;;17.01;52.33
11049;BME280;5577;42.706;23.160;2022-09-20T10:37:32;94236.63;;;18.12;49.33
11049;BME280;5577;42.706;23.160;2022-09-20T10:46:35;94246.91;;;18.89;46.33
11049;BME280;5577;42.706;23.160;2022-09-20T10:59:06;94247.84;;;17.82;47.67
11049;BME280;5577;42.706;23.160;2022-09-20T11:08:15;94226.56;;;17.15;51.91
11049;BME280;5577;42.706;23.160;2022-09-20T11:11:30;94223.81;;;17.68;50.69
11049;BME280;5577;42.706;23.160;2022-09-20T11:17:31;94227.72;;;16.86;52.19
11049;BME280;5577;42.706;23.160;2022-09-20T11:20:27;94227.72;;;16.72;54.26
11049;BME280;5577;42.706;23.160;2022-09-20T11:26:06;94220.38;;;16.24;51.66
11049;BME280;5577;42.706;23.160;2022-09-20T11:29:00;94220.81;;;16.47;51.65
11049;BME280;5577;42.706;23.160;2022-09-20T11:31:46;94213.56;;;16.51;51.04
11049;BME280;5577;42.706;23.160;2022-09-20T11:34:39;94211.56;;;17.74;52.16
11049;BME280;5577;42.706;23.160;2022-09-20T11:37:33;94215.66;;;18.65;50.15
11049;BME280;5577;42.706;23.160;2022-09-20T11:40:25;94210.38;;;19.46;48.89
11049;BME280;5577;42.706;23.160;2022-09-20T11:43:12;94204.22;;;19.83;45.74
11049;BME280;5577;42.706;23.160;2022-09-20T11:46:03;94206.75;;;20.27;45.03
11049;BME280;5577;42.706;23.160;2022-09-20T11:49:02;94190.94;;;20.59;42.15
11049;BME280;5577;42.706;23.160;2022-09-20T11:58:06;94200.38;;;20.44;39.43
11049;BME280;5577;42.706;23.160;2022-09-20T12:00:53;94193.00;;;20.74;38.56
11049;BME280;5577;42.706;23.160;2022-09-20T12:03:40;94189.69;;;20.67;37.95
11049;BME280;5577;42.706;23.160;2022-09-20T12:06:33;94192.28;;;19.13;40.39
11049;BME280;5577;42.706;23.160;2022-09-20T12:09:28;94176.50;;;19.59;41.48
11049;BME280;5577;42.706;23.160;2022-09-20T12:12:25;94188.41;;;20.48;41.44
11049;BME280;5577;42.706;23.160;2022-09-20T12:21:15;94174.00;;;22.12;37.26
11049;BME280;5577;42.706;23.160;2022-09-20T12:24:05;94184.91;;;22.05;36.41
11049;BME280;5577;42.706;23.160;2022-09-20T12:26:58;94177.44;;;21.54;35.74
11049;BME280;5577;42.706;23.160;2022-09-20T12:32:39;94182.66;;;20.99;38.33
11049;BME280;5577;42.706;23.160;2022-09-20T12:41:11;94183.13;;;20.68;38.30
11049;BME280;5577;42.706;23.160;2022-09-20T12:44:05;94177.50;;;20.32;38.41
11049;BME280;5577;42.706;23.160;2022-09-20T12:47:16;94179.94;;;20.50;39.39
11049;BME280;5577;42.706;23.160;2022-09-20T12:50:11;94165.66;;;21.02;37.62
11049;BME280;5577;42.706;23.160;2022-09-20T12:53:26;94176.78;;;20.28;38.79
11049;BME280;5577;42.706;23.160;2022-09-20T12:56:15;94175.03;;;19.51;41.06
11049;BME280;5577;42.706;23.160;2022-09-20T12:59:05;94170.84;;;19.50;39.76
11049;BME280;5577;42.706;23.160;2022-09-20T13:05:34;94178.94;;;19.80;39.94
11049;BME280;5577;42.706;23.160;2022-09-20T13:08:26;94158.81;;;19.92;40.08
11049;BME280;5577;42.706;23.160;2022-09-20T13:11:50;94168.16;;;20.14;39.62
11049;BME280;5577;42.706;23.160;2022-09-20T13:14:39;94174.28;;;19.50;39.07
11049;BME280;5577;42.706;23.160;2022-09-20T13:17:27;94165.47;;;19.13;40.08
11049;BME280;5577;42.706;23.160;2022-09-20T13:20:24;94164.03;;;19.01;39.76
11049;BME280;5577;42.706;23.160;2022-09-20T13:23:28;94165.25;;;19.34;40.00
11049;BME280;5577;42.706;23.160;2022-09-20T13:26:14;94161.13;;;19.26;40.74
11049;BME280;5577;42.706;23.160;2022-09-20T13:29:06;94169.53;;;19.24;40.00
11049;BME280;5577;42.706;23.160;2022-09-20T13:31:53;94166.66;;;19.45;40.90
11049;BME280;5577;42.706;23.160;2022-09-20T13:34:39;94151.38;;;19.72;40.49
11049;BME280;5577;42.706;23.160;2022-09-20T13:37:22;94133.88;;;19.27;39.92
11049;BME280;5577;42.706;23.160;2022-09-20T13:40:19;94153.44;;;19.28;39.34
11049;BME280;5577;42.706;23.160;2022-09-20T13:43:30;94154.53;;;18.90;41.52
11049;BME280;5577;42.706;23.160;2022-09-20T13:46:27;94152.00;;;18.76;42.89
11049;BME280;5577;42.706;23.160;2022-09-20T13:49:17;94153.63;;;18.63;43.17
11049;BME280;5577;42.706;23.160;2022-09-20T13:52:21;94152.50;;;18.60;43.34
11049;BME280;5577;42.706;23.160;2022-09-20T13:55:32;94133.94;;;18.36;43.50
11049;BME280;5577;42.706;23.160;2022-09-20T13:58:20;94154.25;;;18.26;43.44
11049;BME280;5577;42.706;23.160;2022-09-20T14:01:21;94148.16;;;18.22;43.59
11049;BME280;5577;42.706;23.160;2022-09-20T14:04:08;94116.97;;;17.88;44.39
11049;BME280;5577;42.706;23.160;2022-09-20T14:06:57;94142.13;;;18.04;44.69
11049;BME280;5577;42.706;23.160;2022-09-20T14:09:43;94146.44;;;17.88;44.29
11049;BME280;5577;42.706;23.160;2022-09-20T14:12:27;94145.97;;;18.03;45.06
11049;BME280;5577;42.706;23.160;2022-09-20T14:15:14;94142.78;;;18.22;43.75
11049;BME280;5577;42.706;23.160;2022-09-20T14:17:59;94143.34;;;18.54;43.88
11049;BME280;5577;42.706;23.160;2022-09-20T14:20:45;94138.66;;;18.11;45.33
11049;BME280;5577;42.706;23.160;2022-09-20T14:23:30;94140.75;;;17.79;46.80
11049;BME280;5577;42.706;23.160;2022-09-20T14:29:28;94145.84;;;17.38;47.40
11049;BME280;5577;42.706;23.160;2022-09-20T14:35:15;94145.56;;;17.08;47.32
11049;BME280;5577;42.706;23.160;2022-09-20T14:38:22;94146.34;;;16.87;52.36
11049;BME280;5577;42.706;23.160;2022-09-20T14:41:07;94158.19;;;16.93;51.53
11049;BME280;5577;42.706;23.160;2022-09-20T14:43:56;94146.38;;;16.91;52.34
11049;BME280;5577;42.706;23.160;2022-09-20T14:46:41;94112.81;;;16.62;52.05
11049;BME280;5577;42.706;23.160;2022-09-20T14:52:34;94152.88;;;16.72;53.31
11049;BME280;5577;42.706;23.160;2022-09-20T14:55:21;94157.09;;;16.49;54.66
11049;BME280;5577;42.706;23.160;2022-09-20T14:58:12;94160.50;;;16.35;53.67
11049;BME280;5577;42.706;23.160;2022-09-20T15:01:03;94163.13;;;16.25;54.34
11049;BME280;5577;42.706;23.160;2022-09-20T15:03:48;94123.81;;;15.90;52.98
11049;BME280;5577;42.706;23.160;2022-09-20T15:06:35;94160.06;;;16.16;53.80
11049;BME280;5577;42.706;23.160;2022-09-20T15:09:20;94147.47;;;15.99;55.55
11049;BME280;5577;42.706;23.160;2022-09-20T15:14:50;94159.63;;;15.86;57.16
11049;BME280;5577;42.706;23.160;2022-09-20T15:17:34;94160.75;;;15.78;59.08
11049;BME280;5577;42.706;23.160;2022-09-20T15:20:20;94163.81;;;15.76;59.80
11049;BME280;5577;42.706;23.160;2022-09-20T15:23:04;94162.59;;;15.56;58.20
11049;BME280;5577;42.706;23.160;2022-09-20T15:25:49;94161.78;;;15.45;59.10
11049;BME280;5577;42.706;23.160;2022-09-20T15:28:34;94128.41;;;15.04;59.55
11049;BME280;5577;42.706;23.160;2022-09-20T15:31:18;94160.88;;;15.24;60.68
11049;BME280;5577;42.706;23.160;2022-09-20T15:34:05;94160.38;;;15.04;61.51
11049;BME280;5577;42.706;23.160;2022-09-20T15:36:49;94153.09;;;14.91;61.45
11049;BME280;5577;42.706;23.160;2022-09-20T15:39:33;94128.59;;;14.75;61.42
11049;BME280;5577;42.706;23.160;2022-09-20T15:42:17;94165.69;;;14.97;63.65
11049;BME280;5577;42.706;23.160;2022-09-20T15:45:06;94163.69;;;14.84;63.18
11049;BME280;5577;42.706;23.160;2022-09-20T15:47:51;94169.34;;;14.75;63.86
11049;BME280;5577;42.706;23.160;2022-09-20T15:50:38;94168.53;;;14.68;62.57
11049;BME280;5577;42.706;23.160;2022-09-20T15:53:23;94159.72;;;14.60;63.40
11049;BME280;5577;42.706;23.160;2022-09-20T15:56:22;94134.75;;;14.31;65.10
11049;BME280;5577;42.706;23.160;2022-09-20T15:59:08;94173.38;;;14.52;68.20
11049;BME280;5577;42.706;23.160;2022-09-20T16:01:52;94164.53;;;14.41;68.15
11049;BME280;5577;42.706;23.160;2022-09-20T16:04:36;94173.25;;;14.38;71.69
11049;BME280;5577;42.706;23.160;2022-09-20T16:07:23;94168.59;;;14.31;73.07
11049;BME280;5577;42.706;23.160;2022-09-20T16:10:10;94175.44;;;14.28;71.78
11049;BME280;5577;42.706;23.160;2022-09-20T16:12:54;94172.00;;;14.28;73.69
11049;BME280;5577;42.706;23.160;2022-09-20T16:15:37;94186.50;;;14.30;75.81
11049;BME280;5577;42.706;23.160;2022-09-20T16:18:23;94171.97;;;14.24;76.87
11049;BME280;5577;42.706;23.160;2022-09-20T16:21:25;94182.94;;;14.19;76.83
11049;BME280;5577;42.706;23.160;2022-09-20T16:24:09;94166.78;;;13.98;78.01
11049;BME280;5577;42.706;23.160;2022-09-20T16:26:57;94166.56;;;13.77;79.82
11049;BME280;5577;42.706;23.160;2022-09-20T16:29:43;94197.38;;;13.82;78.58
11049;BME280;5577;42.706;23.160;2022-09-20T16:32:27;94160.59;;;13.54;81.42
11049;BME280;5577;42.706;23.160;2022-09-20T16:35:11;94199.22;;;13.78;83.68
11049;BME280;5577;42.706;23.160;2022-09-20T16:37:56;94175.78;;;13.54;86.20
11049;BME280;5577;42.706;23.160;2022-09-20T16:40:42;94198.59;;;13.55;85.01
11049;BME280;5577;42.706;23.160;2022-09-20T16:43:28;94160.63;;;13.25;84.60
11049;BME280;5577;42.706;23.160;2022-09-20T16:46:12;94191.91;;;13.38;88.83
11049;BME280;5577;42.706;23.160;2022-09-20T16:48:57;94186.91;;;13.30;89.56
11049;BME280;5577;42.706;23.160;2022-09-20T16:51:44;94203.16;;;13.25;93.79
11049;BME280;5577;42.706;23.160;2022-09-20T16:54:29;94194.63;;;13.12;95.86
11049;BME280;5577;42.706;23.160;2022-09-20T16:57:13;94198.25;;;13.01;97.08
11049;BME280;5577;42.706;23.160;2022-09-20T16:59:58;94204.59;;;12.96;100.00
11049;BME280;5577;42.706;23.160;2022-09-20T17:02:42;94146.28;;;12.51;100.00
11049;BME280;5577;42.706;23.160;2022-09-20T17:05:26;94205.44;;;12.74;100.00
11049;BME280;5577;42.706;23.160;2022-09-20T17:08:10;94209.16;;;12.70;100.00
11049;BME280;5577;42.706;23.160;2022-09-20T17:11:00;94203.00;;;12.66;100.00
11049;BME280;5577;42.706;23.160;2022-09-20T17:13:44;94209.03;;;12.63;100.00
11049;BME280;5577;42.706;23.160;2022-09-20T17:16:35;94212.25;;;12.49;100.00
11049;BME280;5577;42.706;23.160;2022-09-20T17:19:20;94212.91;;;12.43;100.00
11049;BME280;5577;42.706;23.160;2022-09-20T17:22:04;94217.03;;;12.40;100.00
11049;BME280;5577;42.706;23.160;2022-09-20T17:24:50;94217.63;;;12.30;100.00
11049;BME280;5577;42.706;23.160;2022-09-20T17:27:34;94221.88;;;12.12;100.00
11049;BME280;5577;42.706;23.160;2022-09-20T17:30:22;94226.03;;;12.13;100.00
11049;BME280;5577;42.706;23.160;2022-09-20T17:33:06;94217.19;;;12.06;100.00
11049;BME280;5577;42.706;23.160;2022-09-20T17:35:50;94227.88;;;12.09;100.00
11049;BME280;5577;42.706;23.160;2022-09-20T17:38:34;94227.31;;;12.00;100.00
11049;BME280;5577;42.706;23.160;2022-09-20T17:41:19;94229.50;;;11.95;100.00
11049;BME280;5577;42.706;23.160;2022-09-20T17:44:04;94226.00;;;11.91;100.00
11049;BME280;5577;42.706;23.160;2022-09-20T17:46:51;94213.25;;;11.77;100.00
11049;BME280;5577;42.706;23.160;2022-09-20T17:49:36;94218.63;;;11.81;100.00
11049;BME280;5577;42.706;23.160;2022-09-20T17:52:21;94230.84;;;11.85;100.00
11049;BME280;5577;42.706;23.160;2022-09-20T17:55:05;94222.19;;;11.69;100.00
11049;BME280;5577;42.706;23.160;2022-09-20T17:57:51;94234.47;;;11.77;100.00
11049;BME280;5577;42.706;23.160;2022-09-20T18:00:35;94242.44;;;11.77;100.00
11049;BME280;5577;42.706;23.160;2022-09-20T18:03:22;94234.25;;;11.67;100.00
11049;BME280;5577;42.706;23.160;2022-09-20T18:06:12;94234.94;;;11.63;100.00
11049;BME280;5577;42.706;23.160;2022-09-20T18:09:02;94256.44;;;11.58;100.00
11049;BME280;5577;42.706;23.160;2022-09-20T18:11:49;94244.16;;;11.50;100.00
11049;BME280;5577;42.706;23.160;2022-09-20T18:14:33;94245.59;;;11.48;100.00
11049;BME280;5577;42.706;23.160;2022-09-20T18:17:17;94250.41;;;11.42;100.00
11049;BME280;5577;42.706;23.160;2022-09-20T18:20:02;94250.34;;;11.39;100.00
11049;BME280;5577;42.706;23.160;2022-09-20T18:22:47;94246.69;;;11.28;100.00
11049;BME280;5577;42.706;23.160;2022-09-20T18:25:33;94245.91;;;11.08;100.00
11049;BME280;5577;42.706;23.160;2022-09-20T18:28:37;94247.88;;;10.96;100.00
11049;BME280;5577;42.706;23.160;2022-09-20T18:31:27;94249.31;;;10.93;100.00
11049;BME280;5577;42.706;23.160;2022-09-20T18:34:22;94248.59;;;10.77;100.00
11049;BME280;5577;42.706;23.160;2022-09-20T18:37:06;94247.66;;;10.70;100.00
11049;BME280;5577;42.706;23.160;2022-09-20T18:39:52;94246.19;;;10.72;100.00
11049;BME280;5577;42.706;23.160;2022-09-20T18:42:36;94244.56;;;10.68;100.00
11049;BME280;5577;42.706;23.160;2022-09-20T18:45:20;94253.72;;;10.70;100.00
11049;BME280;5577;42.706;23.160;2022-09-20T18:48:04;94256.03;;;10.72;100.00
11049;BME280;5577;42.706;23.160;2022-09-20T18:51:01;94251.31;;;10.81;100.00
11049;BME280;5577;42.706;23.160;2022-09-20T18:53:45;94250.28;;;10.85;100.00
11049;BME280;5577;42.706;23.160;2022-09-20T18:56:32;94252.59;;;10.87;100.00
11049;BME280;5577;42.706;23.160;2022-09-20T18:59:20;94240.91;;;10.72;100.00
11049;BME280;5577;42.706;23.160;2022-09-20T19:08:22;94246.53;;;10.71;100.00
11049;BME280;5577;42.706;23.160;2022-09-20T19:11:22;94247.03;;;10.61;100.00
11049;BME280;5577;42.706;23.160;2022-09-20T19:14:20;94249.19;;;10.40;100.00
11049;BME280;5577;42.706;23.160;2022-09-20T19:17:09;94251.06;;;10.24;100.00
11049;BME280;5577;42.706;23.160;2022-09-20T19:20:02;94257.47;;;10.23;100.00
11049;BME280;5577;42.706;23.160;2022-09-20T19:28:59;94258.72;;;10.29;100.00
11049;BME280;5577;42.706;23.160;2022-09-20T19:31:43;94245.00;;;10.23;100.00